Time;durP1;ratioP1;P1;durP2;ratioP2;P2;SDS_P1;SDS_P2;PMS_P1;PMS_P2;Temp;Humidity;BMP_temperature;BMP_pressure;BME280_temperature;BME280_humidity;BME280_pressure;Samples;Min_cycle;Max_cycle;Signal;HPM_P1;HPM_P2
2023/04/21 00:00:08;;;;;;;8.68;5.88;;;;;15.10;101452.00;;;;5048539;28;20203;-77
2023/04/21 00:02:38;;;;;;;8.40;6.43;;;;;15.10;101449.00;;;;5048910;28;20577;-75
2023/04/21 00:05:08;;;;;;;8.27;5.93;;;;;15.10;101437.00;;;;5047961;28;20958;-75
2023/04/21 00:07:36;;;;;;;10.70;6.47;;;;;15.10;101434.00;;;;5047995;28;20223;-74
2023/04/21 00:10:06;;;;;;;9.80;6.57;;;;;15.10;101427.00;;;;5047341;28;20546;-74
2023/04/21 00:12:33;;;;;;;10.77;6.55;;;;;15.10;101422.00;;;;5047618;28;20763;-74
2023/04/21 00:15:00;;;;;;;8.32;6.15;;;;;15.10;101414.00;;;;5048542;28;20203;-74
2023/04/21 00:17:28;;;;;;;8.00;6.28;;;;;15.10;101411.00;;;;5060376;28;20229;-75
2023/04/21 00:19:55;;;;;;;7.90;6.32;;;;;15.10;101420.00;;;;5049255;28;20231;-75
2023/04/21 00:22:22;;;;;;;12.23;6.05;;;;;15.10;101411.00;;;;5047365;28;20207;-74
2023/04/21 00:24:50;;;;;;;8.70;5.93;;;;;15.10;101407.00;;;;5047851;28;20214;-75
2023/04/21 00:27:18;;;;;;;8.43;6.35;;;;;15.10;101399.00;;;;5060135;28;20195;-74
2023/04/21 00:29:46;;;;;;;9.65;6.78;;;;;15.10;101405.00;;;;5068209;28;20909;-75
2023/04/21 00:32:13;;;;;;;8.55;6.38;;;;;15.10;101397.00;;;;5055385;28;20235;-74
2023/04/21 00:34:40;;;;;;;9.18;6.15;;;;;15.10;101386.00;;;;5048916;28;20686;-75
2023/04/21 00:37:07;;;;;;;7.55;6.20;;;;;15.10;101388.00;;;;5047584;28;20202;-74
2023/04/21 00:39:35;;;;;;;8.93;6.40;;;;;15.10;101387.00;;;;5047547;28;20214;-74
2023/04/21 00:42:02;;;;;;;11.90;6.43;;;;;15.10;101392.00;;;;5058065;28;20736;-74
2023/04/21 00:44:31;;;;;;;9.43;6.70;;;;;15.00;101390.00;;;;5063625;28;20202;-75
2023/04/21 00:46:58;;;;;;;8.95;6.20;;;;;15.10;101382.00;;;;5059276;28;22105;-75
2023/04/21 00:49:26;;;;;;;9.20;6.55;;;;;15.00;101382.00;;;;5057820;28;20195;-75
2023/04/21 00:51:54;;;;;;;8.88;6.68;;;;;15.00;101358.00;;;;5056257;28;20484;-74
2023/04/21 00:54:23;;;;;;;8.80;7.25;;;;;15.00;101364.00;;;;5055131;28;20651;-74
2023/04/21 00:56:51;;;;;;;11.35;7.53;;;;;15.00;101375.00;;;;5067543;28;20195;-75
2023/04/21 00:59:18;;;;;;;9.05;6.95;;;;;15.00;101377.00;;;;5056289;28;20203;-75
2023/04/21 01:01:47;;;;;;;8.57;6.50;;;;;14.90;101369.00;;;;5048322;28;20196;-74
2023/04/21 01:04:14;;;;;;;11.50;7.30;;;;;14.90;101359.00;;;;5047428;28;20680;-74
2023/04/21 01:06:42;;;;;;;10.27;7.47;;;;;14.90;101365.00;;;;5054871;28;20206;-75
2023/04/21 01:09:11;;;;;;;10.48;7.55;;;;;14.90;101359.00;;;;5070618;28;20676;-74
2023/04/21 01:11:38;;;;;;;10.13;8.07;;;;;14.90;101358.00;;;;5065266;28;20215;-75
2023/04/21 01:14:06;;;;;;;11.20;7.75;;;;;14.90;101352.00;;;;5071059;28;20710;-73
2023/04/21 01:16:33;;;;;;;10.10;7.65;;;;;14.90;101358.00;;;;5071288;28;20679;-74
2023/04/21 01:19:04;;;;;;;10.63;7.22;;;;;14.90;101351.00;;;;5058088;28;20184;-74
2023/04/21 01:21:39;;;;;;;9.05;6.80;;;;;14.80;101347.00;;;;5063832;28;20702;-75
2023/04/21 01:24:07;;;;;;;12.38;7.82;;;;;14.90;101351.00;;;;5070583;28;20201;-74
2023/04/21 01:26:34;;;;;;;11.73;8.07;;;;;14.80;101343.00;;;;5056053;28;20204;-74
2023/04/21 01:29:02;;;;;;;12.18;7.97;;;;;14.80;101347.00;;;;5051511;28;20667;-74
2023/04/21 01:31:29;;;;;;;11.68;8.02;;;;;14.80;101345.00;;;;5058161;28;20195;-73
2023/04/21 01:33:56;;;;;;;11.15;7.55;;;;;14.80;101332.00;;;;5054564;28;20231;-74
2023/04/21 01:36:24;;;;;;;9.88;7.68;;;;;14.80;101345.00;;;;5051513;28;20199;-74
2023/04/21 01:38:52;;;;;;;9.32;7.43;;;;;14.80;101336.00;;;;5051917;28;20204;-74
2023/04/21 01:41:20;;;;;;;11.32;7.75;;;;;14.90;101330.00;;;;5054899;28;20210;-74
2023/04/21 01:43:47;;;;;;;10.95;7.93;;;;;14.80;101331.00;;;;5060165;28;20210;-74
2023/04/21 01:46:14;;;;;;;10.25;7.53;;;;;14.80;101325.00;;;;5071457;28;20561;-75
2023/04/21 01:48:42;;;;;;;12.80;8.00;;;;;14.80;101323.00;;;;5054316;28;20207;-74
2023/04/21 01:51:09;;;;;;;12.38;7.68;;;;;14.90;101320.00;;;;5065834;28;20683;-74
2023/04/21 01:53:36;;;;;;;10.30;8.05;;;;;14.90;101320.00;;;;5064753;28;20214;-74
2023/04/21 01:56:05;;;;;;;12.07;7.97;;;;;14.90;101315.00;;;;5059352;28;20214;-74
2023/04/21 01:58:33;;;;;;;10.93;8.35;;;;;14.90;101317.00;;;;5057203;28;20195;-74
2023/04/21 02:01:00;;;;;;;12.85;8.65;;;;;14.90;101322.00;;;;5062643;28;20199;-74
2023/04/21 02:03:27;;;;;;;11.00;8.02;;;;;14.90;101327.00;;;;5061241;28;20206;-74
2023/04/21 02:05:54;;;;;;;10.27;7.38;;;;;14.90;101328.00;;;;5050744;28;20202;-74
2023/04/21 02:08:22;;;;;;;10.20;7.50;;;;;14.90;101319.00;;;;5051998;28;20204;-74
2023/04/21 02:10:49;;;;;;;10.30;8.30;;;;;14.90;101320.00;;;;5071377;28;20199;-74
2023/04/21 02:13:18;;;;;;;11.63;8.40;;;;;14.90;101326.00;;;;5062408;28;20282;-74
2023/04/21 02:15:45;;;;;;;12.77;8.50;;;;;14.90;101326.00;;;;5061610;28;20207;-74
2023/04/21 02:18:13;;;;;;;10.77;8.25;;;;;14.90;101323.00;;;;5069951;28;20211;-74
2023/04/21 02:20:41;;;;;;;11.57;8.13;;;;;14.90;101318.00;;;;5070250;28;20226;-74
2023/04/21 02:23:08;;;;;;;15.13;8.38;;;;;14.90;101313.00;;;;5070488;28;20199;-74
2023/04/21 02:25:35;;;;;;;10.80;8.75;;;;;15.00;101310.00;;;;5065798;28;20692;-74
2023/04/21 02:28:03;;;;;;;11.23;8.75;;;;;14.90;101299.00;;;;5069147;28;20202;-74
2023/04/21 02:30:31;;;;;;;11.40;8.07;;;;;14.90;101305.00;;;;5069364;28;20202;-73
2023/04/21 02:32:58;;;;;;;11.63;8.25;;;;;14.90;101310.00;;;;5057289;28;20715;-74
2023/04/21 02:35:26;;;;;;;12.27;8.27;;;;;14.90;101304.00;;;;5070351;28;20198;-74
2023/04/21 02:37:53;;;;;;;11.65;8.10;;;;;14.90;101299.00;;;;5070385;28;20191;-74
2023/04/21 02:40:21;;;;;;;11.73;8.82;;;;;14.90;101311.00;;;;5056251;28;20196;-74
2023/04/21 02:42:48;;;;;;;13.30;8.77;;;;;15.00;101305.00;;;;5065035;28;20187;-74
2023/04/21 02:45:15;;;;;;;11.40;8.57;;;;;15.00;101300.00;;;;5069860;28;20203;-74
2023/04/21 02:47:44;;;;;;;11.18;8.07;;;;;15.00;101297.00;;;;5069631;28;20203;-74
2023/04/21 02:50:14;;;;;;;11.68;8.57;;;;;14.90;101286.00;;;;5064318;28;20617;-74
2023/04/21 02:52:41;;;;;;;9.82;7.90;;;;;15.00;101298.00;;;;5068380;28;20309;-74
2023/04/21 02:55:09;;;;;;;11.20;8.48;;;;;15.00;101286.00;;;;5068990;28;20195;-73
2023/04/21 02:57:36;;;;;;;10.90;7.95;;;;;15.00;101285.00;;;;5069648;28;20203;-74
2023/04/21 03:00:06;;;;;;;10.75;7.90;;;;;14.90;101288.00;;;;5069966;28;20202;-74
2023/04/21 03:02:33;;;;;;;10.75;8.25;;;;;15.00;101278.00;;;;5069780;28;20222;-74
2023/04/21 03:05:03;;;;;;;12.73;9.65;;;;;14.90;101285.00;;;;5068830;28;20195;-74
2023/04/21 03:07:30;;;;;;;12.15;9.45;;;;;14.90;101296.00;;;;5068562;28;20211;-75
2023/04/21 03:09:57;;;;;;;11.88;8.50;;;;;14.90;101299.00;;;;5068047;28;20195;-74
2023/04/21 03:12:25;;;;;;;13.07;9.65;;;;;14.90;101293.00;;;;5069012;28;20218;-74
2023/04/21 03:14:52;;;;;;;13.27;9.23;;;;;14.90;101288.00;;;;5065307;28;20202;-74
2023/04/21 03:17:19;;;;;;;13.88;9.13;;;;;14.90;101300.00;;;;5049370;28;20196;-74
2023/04/21 03:19:47;;;;;;;13.02;9.57;;;;;14.90;101285.00;;;;5049779;28;20208;-74
2023/04/21 03:22:15;;;;;;;14.23;9.80;;;;;14.90;101283.00;;;;5064584;28;20203;-74
2023/04/21 03:24:43;;;;;;;11.27;8.63;;;;;14.90;101281.00;;;;5067368;28;20199;-74
2023/04/21 03:27:10;;;;;;;12.15;9.38;;;;;14.90;101276.00;;;;5064071;28;20224;-74
2023/04/21 03:29:37;;;;;;;13.30;9.82;;;;;14.90;101273.00;;;;5068722;28;20199;-74
2023/04/21 03:32:05;;;;;;;12.40;8.98;;;;;14.90;101273.00;;;;5059703;28;20230;-74
2023/04/21 03:34:32;;;;;;;12.18;9.52;;;;;14.90;101280.00;;;;5049170;28;20234;-75
2023/04/21 03:36:59;;;;;;;13.02;8.68;;;;;14.90;101267.00;;;;5048356;28;20200;-74
2023/04/21 03:39:28;;;;;;;12.02;8.75;;;;;14.90;101259.00;;;;5049206;28;20199;-74
2023/04/21 03:41:55;;;;;;;12.95;9.80;;;;;14.90;101263.00;;;;5057465;28;20203;-74
2023/04/21 03:44:24;;;;;;;11.63;8.70;;;;;14.90;101261.00;;;;5056898;28;20215;-73
2023/04/21 03:46:53;;;;;;;13.05;9.55;;;;;14.90;101249.00;;;;5063906;28;20209;-74
2023/04/21 03:49:20;;;;;;;12.25;9.38;;;;;14.90;101248.00;;;;5066305;28;20240;-74
2023/04/21 03:51:47;;;;;;;12.35;9.88;;;;;14.90;101245.00;;;;5060885;28;20211;-74
2023/04/21 03:54:15;;;;;;;12.82;9.48;;;;;14.90;101256.00;;;;5062656;28;20222;-74
2023/04/21 03:56:44;;;;;;;12.18;8.98;;;;;14.90;101244.00;;;;5066750;28;20203;-74
2023/04/21 03:59:11;;;;;;;11.63;8.80;;;;;14.90;101244.00;;;;5060240;28;20692;-75
2023/04/21 04:01:38;;;;;;;10.65;8.60;;;;;15.00;101259.00;;;;5052973;28;20191;-75
2023/04/21 04:04:06;;;;;;;12.63;9.45;;;;;14.90;101251.00;;;;5058627;28;20204;-74
2023/04/21 04:06:34;;;;;;;13.48;9.57;;;;;14.90;101250.00;;;;5054568;28;20206;-74
2023/04/21 04:09:03;;;;;;;12.00;9.55;;;;;14.90;101251.00;;;;5066540;28;20198;-75
2023/04/21 04:11:30;;;;;;;10.00;8.55;;;;;14.90;101248.00;;;;5060520;28;20214;-75
2023/04/21 04:13:59;;;;;;;12.35;9.45;;;;;14.80;101233.00;;;;5048108;28;20250;-75
2023/04/21 04:16:27;;;;;;;13.23;9.10;;;;;14.90;101246.00;;;;5055136;28;20203;-74
2023/04/21 04:18:55;;;;;;;11.82;8.02;;;;;14.80;101244.00;;;;5059619;28;20195;-74
2023/04/21 04:21:22;;;;;;;12.20;8.38;;;;;14.80;101237.00;;;;5066032;28;20207;-75
2023/04/21 04:23:52;;;;;;;10.85;8.23;;;;;14.80;101235.00;;;;5061593;28;20217;-75
2023/04/21 04:26:21;;;;;;;11.13;8.43;;;;;14.80;101238.00;;;;5062894;28;20195;-75
2023/04/21 04:28:48;;;;;;;10.63;8.38;;;;;14.80;101230.00;;;;5058415;28;20207;-75
2023/04/21 04:31:17;;;;;;;11.50;8.57;;;;;14.80;101230.00;;;;5061610;28;20202;-75
2023/04/21 04:33:44;;;;;;;9.90;8.35;;;;;14.80;101233.00;;;;5061594;28;20223;-74
2023/04/21 04:36:11;;;;;;;11.45;8.27;;;;;14.80;101238.00;;;;5067434;28;20217;-74
2023/04/21 04:38:40;;;;;;;9.55;7.95;;;;;14.80;101241.00;;;;5068159;28;20228;-74
2023/04/21 04:41:08;;;;;;;10.85;8.73;;;;;14.80;101255.00;;;;5048253;28;20951;-75
2023/04/21 04:43:37;;;;;;;10.77;8.52;;;;;14.80;101239.00;;;;5052466;28;20241;-74
2023/04/21 04:46:07;;;;;;;11.77;9.30;;;;;14.80;101234.00;;;;5071783;28;20210;-75
2023/04/21 04:48:36;;;;;;;12.27;9.70;;;;;14.80;101240.00;;;;5069378;28;20233;-75
2023/04/21 04:51:03;;;;;;;11.38;9.48;;;;;14.80;101241.00;;;;5057996;28;20215;-75
2023/04/21 04:53:31;;;;;;;13.02;9.27;;;;;14.80;101233.00;;;;5072310;28;20223;-75
2023/04/21 04:55:59;;;;;;;11.27;8.98;;;;;14.80;101238.00;;;;5071457;28;20194;-74
2023/04/21 04:58:26;;;;;;;12.32;10.00;;;;;14.80;101244.00;;;;5071111;28;20225;-74
2023/04/21 05:00:53;;;;;;;13.55;9.52;;;;;14.80;101239.00;;;;5071891;28;20194;-75
2023/04/21 05:03:21;;;;;;;12.63;9.43;;;;;14.80;101238.00;;;;5070393;28;20202;-75
2023/04/21 05:05:49;;;;;;;12.70;9.93;;;;;14.80;101246.00;;;;5068006;28;20203;-75
2023/04/21 05:08:17;;;;;;;12.77;10.18;;;;;14.80;101249.00;;;;5065403;28;20206;-75
2023/04/21 05:10:44;;;;;;;11.68;9.32;;;;;14.80;101250.00;;;;5058086;28;20203;-75
2023/04/21 05:13:11;;;;;;;12.63;9.85;;;;;14.80;101252.00;;;;5055771;28;20276;-75
2023/04/21 05:15:39;;;;;;;13.55;10.65;;;;;14.80;101243.00;;;;5069733;28;20187;-75
2023/04/21 05:18:06;;;;;;;11.27;8.82;;;;;14.80;101247.00;;;;5062946;28;20958;-75
2023/04/21 05:20:33;;;;;;;11.45;9.65;;;;;14.80;101255.00;;;;5070295;28;20218;-76
2023/04/21 05:23:02;;;;;;;12.95;9.52;;;;;14.80;101247.00;;;;5069380;28;20199;-76
2023/04/21 05:25:30;;;;;;;14.20;10.75;;;;;14.80;101250.00;;;;5066980;28;20218;-75
2023/04/21 05:27:57;;;;;;;12.52;10.30;;;;;14.80;101258.00;;;;5057385;28;20210;-75
2023/04/21 05:30:24;;;;;;;14.95;10.77;;;;;14.80;101256.00;;;;5064613;28;20188;-75
2023/04/21 05:32:51;;;;;;;14.00;10.45;;;;;14.80;101262.00;;;;5060158;28;20226;-76
2023/04/21 05:35:19;;;;;;;13.70;11.13;;;;;14.80;101254.00;;;;5071224;28;20242;-75
2023/04/21 05:37:46;;;;;;;14.73;10.60;;;;;14.80;101251.00;;;;5060115;28;20561;-75
2023/04/21 05:40:15;;;;;;;14.80;10.48;;;;;14.80;101258.00;;;;5051824;28;20215;-75
2023/04/21 05:42:42;;;;;;;12.88;10.38;;;;;14.90;101266.00;;;;5054130;28;20741;-75
2023/04/21 05:45:10;;;;;;;13.75;11.15;;;;;14.90;101267.00;;;;5059609;28;20211;-76
2023/04/21 05:47:38;;;;;;;12.77;10.57;;;;;14.90;101271.00;;;;5071055;28;20202;-76
2023/04/21 05:50:06;;;;;;;14.40;11.70;;;;;15.00;101280.00;;;;5066627;28;20273;-76
2023/04/21 05:52:36;;;;;;;15.02;11.88;;;;;15.00;101286.00;;;;5049035;28;20196;-76
2023/04/21 05:55:03;;;;;;;13.68;10.68;;;;;15.00;101287.00;;;;5052155;28;20222;-75
2023/04/21 05:57:32;;;;;;;14.35;10.48;;;;;15.00;101282.00;;;;5053580;28;20203;-76
2023/04/21 05:59:59;;;;;;;11.85;9.90;;;;;15.10;101281.00;;;;5048720;28;20202;-76
2023/04/21 06:02:27;;;;;;;13.70;10.73;;;;;15.10;101290.00;;;;5050726;28;20220;-76
2023/04/21 06:04:54;;;;;;;16.98;12.05;;;;;15.20;101284.00;;;;5048397;28;20196;-76
2023/04/21 06:07:21;;;;;;;15.85;11.88;;;;;15.20;101292.00;;;;5050350;28;20211;-76
2023/04/21 06:09:51;;;;;;;13.73;10.43;;;;;15.20;101289.00;;;;5050364;28;20215;-76
2023/04/21 06:12:18;;;;;;;15.27;12.32;;;;;15.20;101289.00;;;;5052031;28;20269;-77
2023/04/21 06:14:47;;;;;;;15.05;10.55;;;;;15.20;101286.00;;;;5062162;28;20234;-76
2023/04/21 06:17:17;;;;;;;13.70;10.93;;;;;15.30;101272.00;;;;5050067;28;20210;-77
2023/04/21 06:19:45;;;;;;;15.63;11.48;;;;;15.40;101275.00;;;;5060259;28;20235;-76
2023/04/21 06:22:12;;;;;;;14.75;11.15;;;;;15.40;101267.00;;;;5055755;28;20203;-77
2023/04/21 06:24:39;;;;;;;14.35;11.57;;;;;15.40;101267.00;;;;5061705;28;20904;-77
2023/04/21 06:27:11;;;;;;;15.05;12.18;;;;;15.40;101270.00;;;;5049638;28;21034;-77
2023/04/21 06:29:39;;;;;;;16.63;12.25;;;;;15.50;101276.00;;;;5069198;28;20256;-77
2023/04/21 06:32:07;;;;;;;14.77;12.05;;;;;15.50;101269.00;;;;5055086;28;20223;-78
2023/04/21 06:34:35;;;;;;;14.63;11.98;;;;;15.60;101269.00;;;;5066012;28;20234;-78
2023/04/21 06:37:02;;;;;;;15.18;11.82;;;;;15.60;101273.00;;;;5049053;28;20203;-77
2023/04/21 06:39:30;;;;;;;16.30;13.00;;;;;15.70;101268.00;;;;5050435;28;20291;-77
2023/04/21 06:41:57;;;;;;;15.10;11.93;;;;;15.70;101269.00;;;;5066461;28;20195;-77
2023/04/21 06:44:25;;;;;;;15.70;12.93;;;;;15.80;101274.00;;;;5068474;28;20265;-77
2023/04/21 06:46:52;;;;;;;16.33;12.98;;;;;15.80;101272.00;;;;5056400;28;20196;-77
2023/04/21 06:49:21;;;;;;;17.08;12.73;;;;;15.90;101263.00;;;;5043924;28;20211;-77
2023/04/21 06:51:48;;;;;;;14.90;12.52;;;;;15.90;101263.00;;;;5061715;28;20195;-78
2023/04/21 06:54:15;;;;;;;15.45;11.57;;;;;16.00;101265.00;;;;5062067;28;20238;-77
2023/04/21 06:56:43;;;;;;;15.98;12.02;;;;;16.10;101269.00;;;;5067335;28;20199;-77
2023/04/21 06:59:10;;;;;;;16.23;12.82;;;;;16.10;101265.00;;;;5066138;28;20210;-77
2023/04/21 07:01:37;;;;;;;15.55;12.15;;;;;16.20;101265.00;;;;5062384;28;20200;-77
2023/04/21 07:04:05;;;;;;;16.77;12.82;;;;;16.20;101265.00;;;;5058146;28;20211;-76
2023/04/21 07:06:34;;;;;;;17.48;12.73;;;;;16.30;101258.00;;;;5053272;28;20226;-77
2023/04/21 07:09:01;;;;;;;14.32;11.80;;;;;16.40;101263.00;;;;5049994;28;20278;-77
2023/04/21 07:11:28;;;;;;;14.27;11.48;;;;;16.40;101270.00;;;;5049925;28;20195;-77
2023/04/21 07:13:56;;;;;;;15.73;12.00;;;;;16.50;101267.00;;;;5049243;28;20238;-77
2023/04/21 07:16:24;;;;;;;15.85;12.77;;;;;16.60;101271.00;;;;5054669;28;20207;-77
2023/04/21 07:18:51;;;;;;;15.02;12.85;;;;;16.70;101271.00;;;;5052083;28;20203;-77
2023/04/21 07:21:18;;;;;;;16.85;12.65;;;;;16.80;101265.00;;;;5048020;28;20211;-76
2023/04/21 07:23:47;;;;;;;16.23;12.70;;;;;16.80;101264.00;;;;5049279;28;20211;-76
2023/04/21 07:26:14;;;;;;;14.13;11.30;;;;;17.00;101261.00;;;;5067196;28;20214;-77
2023/04/21 07:28:42;;;;;;;13.13;11.05;;;;;17.10;101265.00;;;;5062298;28;20233;-78
2023/04/21 07:31:09;;;;;;;14.93;11.88;;;;;17.10;101265.00;;;;5053603;28;20203;-77
2023/04/21 07:33:36;;;;;;;15.95;12.63;;;;;17.20;101273.00;;;;5061597;28;20723;-77
2023/04/21 07:36:04;;;;;;;15.23;12.85;;;;;17.30;101267.00;;;;5048112;28;20199;-77
2023/04/21 07:38:32;;;;;;;17.48;13.32;;;;;17.40;101271.00;;;;5051212;28;20202;-77
2023/04/21 07:41:00;;;;;;;16.10;13.50;;;;;17.40;101272.00;;;;5048971;28;20196;-77
2023/04/21 07:43:29;;;;;;;15.20;12.35;;;;;17.50;101273.00;;;;5062965;28;20195;-78
2023/04/21 07:45:57;;;;;;;14.90;12.90;;;;;17.50;101278.00;;;;5057642;28;20711;-77
2023/04/21 07:48:24;;;;;;;15.70;11.48;;;;;17.60;101281.00;;;;5056460;28;20191;-77
2023/04/21 07:50:52;;;;;;;14.48;12.15;;;;;17.70;101276.00;;;;5055292;28;20199;-78
2023/04/21 07:53:19;;;;;;;17.80;14.23;;;;;17.70;101275.00;;;;5048504;28;22224;-76
2023/04/21 07:55:46;;;;;;;18.50;13.90;;;;;17.80;101280.00;;;;5055362;28;20653;-78
2023/04/21 07:58:15;;;;;;;14.88;12.20;;;;;17.90;101280.00;;;;5047718;28;20211;-77
2023/04/21 08:00:43;;;;;;;18.17;13.95;;;;;17.90;101284.00;;;;5048200;28;20302;-77
2023/04/21 08:03:10;;;;;;;16.85;13.35;;;;;18.00;101275.00;;;;5048470;28;20196;-77
2023/04/21 08:05:37;;;;;;;15.35;13.18;;;;;18.10;101269.00;;;;5049135;28;20195;-78
2023/04/21 08:08:06;;;;;;;15.88;13.55;;;;;18.20;101264.00;;;;5048029;28;20200;-78
2023/04/21 08:10:33;;;;;;;14.88;12.98;;;;;18.20;101262.00;;;;5058022;28;20221;-77
2023/04/21 08:13:02;;;;;;;17.50;13.60;;;;;18.40;101267.00;;;;5049921;28;20203;-78
2023/04/21 08:15:30;;;;;;;16.75;13.90;;;;;18.40;101260.00;;;;5048404;28;20251;-77
2023/04/21 08:17:58;;;;;;;16.25;12.45;;;;;18.50;101264.00;;;;5053760;28;20203;-78
2023/04/21 08:20:25;;;;;;;15.10;12.57;;;;;18.60;101262.00;;;;5054817;28;20215;-78
2023/04/21 08:22:52;;;;;;;16.60;13.02;;;;;18.60;101266.00;;;;5048196;28;20713;-77
2023/04/21 08:25:20;;;;;;;15.82;12.93;;;;;18.70;101271.00;;;;5049277;28;20317;-78
2023/04/21 08:27:47;;;;;;;19.92;12.63;;;;;18.80;101259.00;;;;5059797;28;20198;-78
2023/04/21 08:30:18;;;;;;;15.45;12.10;;;;;18.80;101258.00;;;;5065953;28;20230;-77
2023/04/21 08:32:46;;;;;;;15.00;12.65;;;;;18.90;101268.00;;;;5066682;28;20400;-77
2023/04/21 08:35:13;;;;;;;14.70;12.13;;;;;19.00;101262.00;;;;5066903;28;20598;-77
2023/04/21 08:37:41;;;;;;;13.57;12.07;;;;;19.10;101266.00;;;;5061427;28;20758;-78
2023/04/21 08:40:09;;;;;;;13.90;12.02;;;;;19.10;101261.00;;;;5049902;28;20195;-77
2023/04/21 08:42:37;;;;;;;15.38;12.80;;;;;19.20;101263.00;;;;5046273;28;20199;-78
2023/04/21 08:45:05;;;;;;;15.02;12.63;;;;;19.30;101270.00;;;;5049646;28;20204;-77
2023/04/21 08:47:33;;;;;;;15.23;12.02;;;;;19.40;101269.00;;;;5067201;28;20191;-77
2023/04/21 08:50:02;;;;;;;14.60;12.40;;;;;19.50;101262.00;;;;5053795;28;20219;-78
2023/04/21 08:52:30;;;;;;;12.85;11.48;;;;;19.60;101256.00;;;;5055570;28;20198;-77
2023/04/21 08:54:58;;;;;;;12.30;11.00;;;;;19.70;101251.00;;;;5045684;28;20227;-77
2023/04/21 08:57:25;;;;;;;12.60;11.02;;;;;19.80;101252.00;;;;5045216;28;20203;-77
2023/04/21 08:59:53;;;;;;;13.82;11.50;;;;;19.90;101245.00;;;;5049624;28;20202;-77
2023/04/21 09:02:20;;;;;;;15.65;12.77;;;;;20.00;101254.00;;;;5060044;28;20188;-77
2023/04/21 09:04:49;;;;;;;13.60;12.18;;;;;20.10;101249.00;;;;5046869;28;20204;-77
2023/04/21 09:07:32;;;;;;;12.50;11.20;;;;;20.10;101248.00;;;;5050332;28;20758;-77
2023/04/21 09:10:00;;;;;;;14.13;11.52;;;;;20.30;101263.00;;;;5055562;28;20202;-77
2023/04/21 09:12:28;;;;;;;12.65;11.05;;;;;20.40;101263.00;;;;5057565;28;20195;-77
2023/04/21 09:14:57;;;;;;;12.82;10.68;;;;;20.40;101265.00;;;;5045776;28;20228;-77
2023/04/21 09:17:31;;;;;;;12.23;10.77;;;;;20.50;101272.00;;;;5056910;28;20213;-75
2023/04/21 09:20:11;;;;;;;11.38;10.18;;;;;20.50;101256.00;;;;5047234;28;20223;-77
2023/04/21 09:22:40;;;;;;;11.40;10.25;;;;;20.50;101252.00;;;;5045787;28;20203;-77
2023/04/21 09:25:07;;;;;;;12.80;9.80;;;;;20.50;101258.00;;;;5046968;28;20203;-77
2023/04/21 09:27:36;;;;;;;16.67;10.52;;;;;20.50;101251.00;;;;5047277;28;20199;-77
2023/04/21 09:30:06;;;;;;;11.35;9.50;;;;;20.60;101249.00;;;;5050349;28;20195;-77
2023/04/21 09:32:37;;;;;;;10.43;9.32;;;;;20.60;101252.00;;;;5050813;28;20227;-77
2023/04/21 09:35:06;;;;;;;10.50;9.27;;;;;20.70;101267.00;;;;5050826;28;20230;-77
2023/04/21 09:37:34;;;;;;;10.95;9.20;;;;;20.70;101261.00;;;;5051657;28;20207;-77
2023/04/21 09:40:03;;;;;;;12.15;9.23;;;;;20.70;101258.00;;;;5050842;28;20199;-77
2023/04/21 09:42:31;;;;;;;12.55;10.18;;;;;20.80;101264.00;;;;5050616;28;20200;-77
2023/04/21 09:44:58;;;;;;;11.05;9.15;;;;;20.90;101258.00;;;;5050522;28;21082;-78
2023/04/21 09:47:29;;;;;;;11.63;10.43;;;;;20.90;101248.00;;;;5051237;28;20199;-77
2023/04/21 09:49:57;;;;;;;12.85;9.50;;;;;21.00;101243.00;;;;5050569;28;20588;-78
2023/04/21 09:52:27;;;;;;;11.70;10.35;;;;;21.00;101248.00;;;;5057609;28;20856;-78
2023/04/21 09:55:02;;;;;;;10.88;9.60;;;;;20.90;101240.00;;;;5068347;28;20241;-77
2023/04/21 09:57:32;;;;;;;11.20;9.68;;;;;21.00;101240.00;;;;5069117;28;20191;-75
2023/04/21 10:00:03;;;;;;;11.75;10.48;;;;;21.00;101236.00;;;;5068174;28;20210;-75
2023/04/21 10:02:31;;;;;;;13.63;10.48;;;;;21.00;101244.00;;;;5069354;28;20635;-75
2023/04/21 10:04:59;;;;;;;9.90;8.70;;;;;21.10;101242.00;;;;5068358;28;20328;-75
2023/04/21 10:07:26;;;;;;;8.77;7.88;;;;;21.10;101245.00;;;;5069827;28;20209;-75
2023/04/21 10:09:56;;;;;;;11.95;9.13;;;;;21.10;101249.00;;;;5068788;28;20199;-77
2023/04/21 10:12:24;;;;;;;11.70;9.48;;;;;21.10;101237.00;;;;5069366;28;20203;-77
2023/04/21 10:14:54;;;;;;;10.13;8.90;;;;;21.20;101243.00;;;;5069876;28;20707;-77
2023/04/21 10:17:24;;;;;;;13.05;9.27;;;;;21.20;101246.00;;;;5069286;28;20252;-76
2023/04/21 10:19:53;;;;;;;11.38;8.88;;;;;21.20;101243.00;;;;5050784;28;20265;-77
2023/04/21 10:22:31;;;;;;;12.02;10.07;;;;;21.20;101235.00;;;;5049625;28;20200;-77
2023/04/21 10:25:00;;;;;;;9.48;8.13;;;;;21.20;101235.00;;;;5049842;28;20192;-77
2023/04/21 10:27:35;;;;;;;11.18;8.98;;;;;21.20;101236.00;;;;5066781;28;20229;-77
2023/04/21 10:30:19;;;;;;;11.38;9.32;;;;;21.10;101232.00;;;;5069079;28;20211;-77
2023/04/21 10:32:46;;;;;;;10.65;9.07;;;;;21.20;101237.00;;;;5069844;28;20272;-76
2023/04/21 10:35:16;;;;;;;10.65;9.23;;;;;21.20;101234.00;;;;5068864;28;20223;-75
2023/04/21 10:37:43;;;;;;;10.68;8.68;;;;;21.20;101238.00;;;;5051257;28;20200;-75
2023/04/21 10:40:34;;;;;;;12.65;11.27;;;;;21.10;101220.00;;;;5049129;28;20204;-75
2023/04/21 10:43:03;;;;;;;12.25;10.20;;;;;21.20;101220.00;;;;5049495;28;20214;-75
2023/04/21 10:45:32;;;;;;;11.95;9.40;;;;;21.10;101219.00;;;;5050264;28;20257;-75
2023/04/21 10:48:02;;;;;;;11.80;9.43;;;;;21.20;101213.00;;;;5049243;28;20196;-76
2023/04/21 10:50:31;;;;;;;11.32;8.85;;;;;21.20;101212.00;;;;5052503;28;20199;-76
2023/04/21 10:53:08;;;;;;;11.98;8.68;;;;;21.30;101206.00;;;;5070456;28;20195;-75
2023/04/21 10:55:36;;;;;;;10.35;8.80;;;;;21.40;101214.00;;;;5069237;28;20273;-76
2023/04/21 10:58:07;;;;;;;9.75;8.60;;;;;21.50;101206.00;;;;5069695;28;20203;-76
2023/04/21 11:00:38;;;;;;;9.10;8.18;;;;;21.70;101202.00;;;;5059611;28;20684;-76
2023/04/21 11:03:06;;;;;;;10.73;9.63;;;;;21.80;101195.00;;;;5049774;28;20207;-75
2023/04/21 11:05:37;;;;;;;9.55;8.27;;;;;21.80;101193.00;;;;5066027;28;20637;-75
2023/04/21 11:08:10;;;;;;;11.25;9.27;;;;;21.90;101195.00;;;;5069802;28;20195;-76
2023/04/21 11:10:50;;;;;;;11.82;8.93;;;;;21.80;101193.00;;;;5069211;28;20245;-76
2023/04/21 11:13:20;;;;;;;11.38;9.45;;;;;21.90;101185.00;;;;5069248;28;20245;-75
2023/04/21 11:16:00;;;;;;;9.27;8.02;;;;;21.90;101185.00;;;;5069745;28;20227;-76
2023/04/21 11:18:36;;;;;;;10.50;8.57;;;;;21.90;101188.00;;;;5067079;28;20264;-76
2023/04/21 11:21:20;;;;;;;11.40;9.23;;;;;22.00;101181.00;;;;5048817;28;20227;-76
2023/04/21 11:23:52;;;;;;;12.45;10.15;;;;;22.00;101188.00;;;;5049380;28;20580;-76
2023/04/21 11:26:29;;;;;;;11.98;9.90;;;;;22.10;101181.00;;;;5049235;28;20614;-76
2023/04/21 11:28:59;;;;;;;11.18;10.02;;;;;22.10;101172.00;;;;5049348;28;20199;-75
2023/04/21 11:31:30;;;;;;;14.32;10.70;;;;;22.00;101165.00;;;;5049171;28;20203;-76
2023/04/21 11:33:58;;;;;;;11.95;10.68;;;;;22.10;101162.00;;;;5049091;28;20305;-76
2023/04/21 11:36:28;;;;;;;13.80;10.90;;;;;22.10;101166.00;;;;5049095;28;20223;-76
2023/04/21 11:38:55;;;;;;;12.00;10.30;;;;;22.20;101164.00;;;;5048607;28;20207;-75
2023/04/21 11:41:23;;;;;;;11.00;9.00;;;;;22.30;101158.00;;;;5048679;28;20200;-76
2023/04/21 11:43:51;;;;;;;10.75;8.23;;;;;22.50;101160.00;;;;5048663;28;20199;-76
2023/04/21 11:46:23;;;;;;;12.68;9.10;;;;;22.50;101152.00;;;;5048879;28;20202;-76
2023/04/21 11:49:00;;;;;;;9.68;8.20;;;;;22.50;101146.00;;;;5052729;28;20201;-76
2023/04/21 11:51:32;;;;;;;9.32;7.72;;;;;22.70;101150.00;;;;5057662;28;20297;-76
2023/04/21 11:53:59;;;;;;;9.70;8.68;;;;;22.70;101137.00;;;;5069134;28;20218;-75
2023/04/21 11:56:27;;;;;;;8.77;7.38;;;;;22.80;101132.00;;;;5068529;28;20585;-76
2023/04/21 11:58:55;;;;;;;8.20;7.32;;;;;22.80;101125.00;;;;5068372;28;20210;-76
2023/04/21 12:01:22;;;;;;;9.73;7.55;;;;;22.90;101126.00;;;;5068943;28;20264;-76